Time;durP1;ratioP1;P1;durP2;ratioP2;P2;SDS_P1;SDS_P2;PMS_P1;PMS_P2;Temp;Humidity;BMP_temperature;BMP_pressure;BME280_temperature;BME280_humidity;BME280_pressure;Samples;Min_cycle;Max_cycle;Signal;HPM_P1;HPM_P2
2022/02/03 00:02:54;;;;;;;20.67;8.95;;;0.40;99.90;;;;;;4391757;28;654613;-80
2022/02/03 00:05:49;;;;;;;15.63;7.17;;;0.30;99.90;;;;;;4413131;28;654702;-80
2022/02/03 00:08:54;;;;;;;17.45;7.53;;;0.40;99.90;;;;;;4414629;28;655269;-79
2022/02/03 00:16:09;;;;;;;14.53;6.70;;;0.40;99.90;;;;;;4388627;28;655419;-79
2022/02/03 00:24:14;;;;;;;12.47;5.30;;;0.30;99.90;;;;;;4409690;28;655370;-77
2022/02/03 00:27:10;;;;;;;8.63;4.68;;;0.30;99.90;;;;;;4419289;28;654004;-77
2022/02/03 00:30:02;;;;;;;6.50;4.00;;;0.20;99.90;;;;;;4383540;28;653733;-78
2022/02/03 00:36:04;;;;;;;9.77;4.77;;;0.20;99.90;;;;;;4416257;28;654055;-79
2022/02/03 00:48:21;;;;;;;12.18;5.50;;;0.20;99.90;;;;;;4411210;28;653694;-77
2022/02/03 00:51:09;;;;;;;13.27;5.87;;;0.20;99.90;;;;;;4413850;28;654785;-77
2022/02/03 00:53:59;;;;;;;10.50;5.80;;;0.20;99.90;;;;;;4413154;28;654843;-76
2022/02/03 00:56:51;;;;;;;11.63;5.87;;;0.30;99.90;;;;;;4413712;28;654048;-77
2022/02/03 00:59:40;;;;;;;9.07;4.93;;;0.30;99.90;;;;;;4411187;28;655216;-76
2022/02/03 01:02:28;;;;;;;9.33;5.17;;;0.20;99.90;;;;;;4421157;28;654946;-77
2022/02/03 01:05:15;;;;;;;12.57;6.00;;;0.10;99.90;;;;;;4439778;28;653471;-76
2022/02/03 01:08:05;;;;;;;10.93;5.97;;;0.10;99.90;;;;;;4429595;28;655432;-77
2022/02/03 01:11:03;;;;;;;10.00;4.43;;;0.00;99.90;;;;;;4422962;28;655835;-77
2022/02/03 01:13:56;;;;;;;6.00;3.93;;;0.00;99.90;;;;;;4407786;28;655524;-77
2022/02/03 01:17:01;;;;;;;11.40;5.57;;;0.10;99.90;;;;;;4425926;28;653621;-77
2022/02/03 01:20:22;;;;;;;9.63;3.97;;;0.00;99.90;;;;;;4422469;28;655211;-78
2022/02/03 01:45:04;;;;;;;9.60;4.25;;;-0.10;99.90;;;;;;4380254;28;653183;-76
2022/02/03 01:48:19;;;;;;;7.57;4.87;;;0.00;99.90;;;;;;4419934;28;655800;-77
2022/02/03 01:54:12;;;;;;;9.20;4.77;;;-0.10;99.90;;;;;;4419375;28;653834;-76
2022/02/03 01:57:08;;;;;;;8.87;5.37;;;0.00;99.90;;;;;;4445115;28;654943;-76
2022/02/03 02:00:00;;;;;;;10.70;5.00;;;-0.10;99.90;;;;;;4401519;28;653506;-76
2022/02/03 02:03:11;;;;;;;9.33;5.20;;;-0.20;99.90;;;;;;4417774;28;656481;-76
2022/02/03 02:06:34;;;;;;;9.43;4.97;;;-0.10;99.90;;;;;;4413181;28;654829;-77
2022/02/03 02:09:29;;;;;;;7.73;4.80;;;-0.10;99.90;;;;;;4420525;28;654844;-77
2022/02/03 02:12:26;;;;;;;8.87;4.80;;;-0.10;99.90;;;;;;4424151;28;655332;-76
2022/02/03 02:37:19;;;;;;;7.63;4.50;;;-0.20;99.90;;;;;;4422679;28;654553;-77
2022/02/03 02:40:41;;;;;;;6.27;3.63;;;-0.30;99.90;;;;;;4409057;28;654761;-76
2022/02/03 02:43:33;;;;;;;7.67;3.73;;;-0.30;99.90;;;;;;4394507;28;655011;-77
2022/02/03 02:46:23;;;;;;;5.87;4.23;;;-0.20;99.90;;;;;;4414746;28;655306;-76
2022/02/03 02:49:15;;;;;;;7.60;4.10;;;-0.30;99.90;;;;;;4444720;28;653959;-76
2022/02/03 02:52:08;;;;;;;9.07;3.90;;;-0.30;99.90;;;;;;4422614;28;654861;-77
2022/02/03 02:55:08;;;;;;;10.00;5.10;;;-0.30;99.90;;;;;;4413263;28;654296;-76
2022/02/03 02:58:24;;;;;;;8.90;4.73;;;-0.30;99.90;;;;;;4433908;28;655968;-77
2022/02/03 03:29:26;;;;;;;11.93;5.97;;;-0.30;99.90;;;;;;4428798;28;654595;-76
2022/02/03 03:32:35;;;;;;;11.53;5.97;;;-0.30;99.90;;;;;;4412486;28;656339;-77
2022/02/03 03:35:35;;;;;;;11.03;6.27;;;-0.30;99.90;;;;;;4415696;28;656291;-77
2022/02/03 03:38:24;;;;;;;10.00;5.80;;;-0.30;99.90;;;;;;4392301;28;656109;-76
2022/02/03 03:41:12;;;;;;;11.55;6.18;;;-0.30;99.90;;;;;;4420263;28;655532;-77
2022/02/03 03:44:02;;;;;;;12.67;6.47;;;-0.40;99.90;;;;;;4439974;28;655838;-77
2022/02/03 03:46:49;;;;;;;12.33;6.13;;;-0.30;99.90;;;;;;4419409;28;655716;-77
2022/02/03 03:49:44;;;;;;;12.50;5.10;;;-0.40;99.90;;;;;;4417026;28;655435;-76
2022/02/03 03:52:39;;;;;;;8.50;5.43;;;-0.40;99.90;;;;;;4389918;28;656896;-77
2022/02/03 03:55:37;;;;;;;11.70;5.13;;;-0.50;99.90;;;;;;4392073;28;655470;-76
2022/02/03 04:46:14;;;;;;;9.83;4.13;;;-0.80;99.90;;;;;;4323349;28;654922;-77
2022/02/03 04:56:09;;;;;;;9.93;3.53;;;-0.80;99.90;;;;;;4315261;28;654965;-77
2022/02/03 05:02:26;;;;;;;7.87;3.90;;;-0.80;99.90;;;;;;4313195;28;654445;-77
2022/02/03 05:05:36;;;;;;;7.17;3.83;;;-0.80;99.90;;;;;;4313815;28;655035;-77
2022/02/03 05:08:39;;;;;;;8.63;4.07;;;-0.90;99.90;;;;;;4313414;28;654730;-77
2022/02/03 05:12:05;;;;;;;8.07;3.37;;;-0.90;99.90;;;;;;4358580;28;655248;-77
2022/02/03 05:15:32;;;;;;;7.00;3.50;;;-0.90;99.90;;;;;;4335924;28;655029;-77
2022/02/03 05:18:47;;;;;;;8.17;3.60;;;-0.90;99.90;;;;;;4368130;28;654303;-77
2022/02/03 05:32:43;;;;;;;5.93;2.93;;;-1.00;99.90;;;;;;4305294;28;654725;-76
2022/02/03 05:42:25;;;;;;;4.63;2.53;;;-1.00;99.90;;;;;;4303469;28;654754;-76
2022/02/03 05:45:40;;;;;;;7.30;2.83;;;-1.00;99.90;;;;;;4353877;28;654248;-77
2022/02/03 05:48:55;;;;;;;4.63;2.60;;;-1.20;99.90;;;;;;4358985;28;654982;-76
2022/02/03 05:54:58;;;;;;;3.97;2.10;;;-1.20;99.90;;;;;;4354345;28;655283;-77
2022/02/03 06:01:22;;;;;;;7.13;3.17;;;-1.20;99.90;;;;;;4308345;28;654731;-76
2022/02/03 06:04:29;;;;;;;4.80;2.67;;;-1.30;99.90;;;;;;4407882;28;654507;-76
2022/02/03 06:07:46;;;;;;;6.60;2.57;;;-1.30;99.90;;;;;;4398822;28;654450;-77
2022/02/03 06:13:45;;;;;;;9.33;3.53;;;-1.20;99.90;;;;;;4395391;28;654662;-77
2022/02/03 06:16:57;;;;;;;7.30;3.30;;;-1.20;99.90;;;;;;4421104;28;654792;-76
2022/02/03 06:22:51;;;;;;;5.90;3.20;;;-1.20;99.90;;;;;;4415724;28;654849;-76
2022/02/03 06:28:48;;;;;;;10.00;3.90;;;-1.20;99.90;;;;;;4396709;28;656212;-78
2022/02/03 06:31:37;;;;;;;9.70;4.07;;;-1.20;99.90;;;;;;4420706;28;654892;-77
2022/02/03 06:34:24;;;;;;;8.70;3.87;;;-1.20;99.90;;;;;;4420925;28;655239;-78
2022/02/03 06:37:12;;;;;;;6.93;3.87;;;-1.20;99.90;;;;;;4422655;28;654780;-77
2022/02/03 06:40:00;;;;;;;11.07;4.60;;;-1.20;99.90;;;;;;4444273;28;654487;-77
2022/02/03 06:42:48;;;;;;;13.87;4.57;;;-1.20;99.90;;;;;;4423125;28;656053;-76
2022/02/03 06:45:40;;;;;;;9.20;4.30;;;-1.20;99.90;;;;;;4449747;28;655692;-76
2022/02/03 06:48:31;;;;;;;12.93;4.80;;;-1.20;99.90;;;;;;4425328;28;654320;-77
2022/02/03 06:51:27;;;;;;;13.83;5.47;;;-1.20;99.90;;;;;;4425357;28;656327;-77
2022/02/03 06:54:21;;;;;;;11.13;4.97;;;-1.20;99.90;;;;;;4421424;28;655893;-77
2022/02/03 06:57:15;;;;;;;13.83;5.40;;;-1.10;99.90;;;;;;4396370;28;655482;-77
2022/02/03 07:00:06;;;;;;;14.00;5.10;;;-1.10;99.90;;;;;;4394368;28;656345;-78
2022/02/03 07:02:56;;;;;;;12.70;5.80;;;-1.10;99.90;;;;;;4416060;28;656383;-77
2022/02/03 07:05:45;;;;;;;12.70;5.73;;;-1.10;99.90;;;;;;4419522;28;656563;-77
2022/02/03 07:08:34;;;;;;;17.10;5.38;;;-1.00;99.90;;;;;;4419371;28;656056;-77
2022/02/03 07:11:24;;;;;;;14.43;6.23;;;-0.90;99.90;;;;;;4419354;28;655675;-76
2022/02/03 07:14:12;;;;;;;12.40;5.97;;;-0.90;99.90;;;;;;4437495;28;655477;-76
2022/02/03 07:17:02;;;;;;;13.03;6.10;;;-0.90;99.90;;;;;;4440893;28;655968;-79
2022/02/03 07:19:51;;;;;;;18.90;5.63;;;-0.80;99.90;;;;;;4422543;28;656251;-76
2022/02/03 07:22:41;;;;;;;15.03;6.27;;;-0.80;99.90;;;;;;4420833;28;655713;-77
2022/02/03 07:25:30;;;;;;;13.53;7.23;;;-0.70;99.90;;;;;;4418859;28;655787;-78
2022/02/03 07:28:17;;;;;;;18.00;7.00;;;-0.70;99.90;;;;;;4419112;28;655909;-76
2022/02/03 07:31:05;;;;;;;17.40;7.40;;;-0.60;99.90;;;;;;4443467;28;656946;-77
2022/02/03 07:33:54;;;;;;;15.73;7.10;;;-0.60;99.90;;;;;;4417302;28;656469;-75
2022/02/03 07:36:45;;;;;;;14.80;6.30;;;-0.40;99.90;;;;;;4421591;28;655971;-76
2022/02/03 07:39:35;;;;;;;19.43;7.50;;;-0.30;99.90;;;;;;4423801;28;655624;-76
2022/02/03 07:42:22;;;;;;;17.33;6.33;;;-0.30;99.90;;;;;;4424139;28;655483;-76
2022/02/03 07:45:10;;;;;;;15.97;7.13;;;-0.20;99.90;;;;;;4446877;28;656288;-77
2022/02/03 07:47:58;;;;;;;15.13;5.77;;;-0.20;99.90;;;;;;4415394;28;655644;-76
2022/02/03 07:50:45;;;;;;;18.83;6.73;;;-0.10;99.90;;;;;;4441144;28;655792;-77
2022/02/03 07:53:33;;;;;;;13.80;6.43;;;-0.10;99.90;;;;;;4415974;28;655425;-77
2022/02/03 07:56:22;;;;;;;19.27;7.10;;;0.00;99.90;;;;;;4447313;28;655981;-76
2022/02/03 07:59:10;;;;;;;23.27;6.70;;;0.10;99.90;;;;;;4416182;28;655786;-76
2022/02/03 08:01:57;;;;;;;17.67;6.53;;;0.30;99.90;;;;;;4424043;28;654417;-76
2022/02/03 08:04:47;;;;;;;14.57;6.88;;;0.20;99.90;;;;;;4447756;28;655565;-77
2022/02/03 08:07:35;;;;;;;24.33;7.83;;;0.20;99.90;;;;;;4415889;28;655319;-76
2022/02/03 08:10:35;;;;;;;17.77;7.67;;;0.50;99.90;;;;;;4416769;28;654793;-77
2022/02/03 08:13:28;;;;;;;19.70;7.43;;;0.80;99.90;;;;;;4416884;28;654270;-77
2022/02/03 08:16:21;;;;;;;19.23;6.90;;;0.90;99.90;;;;;;4418853;28;654679;-77
2022/02/03 08:19:15;;;;;;;23.17;7.82;;;1.10;99.90;;;;;;4425551;28;655216;-77
2022/02/03 08:22:07;;;;;;;20.33;7.30;;;1.50;99.90;;;;;;4398802;28;655137;-77
2022/02/03 08:25:03;;;;;;;19.80;7.03;;;1.70;99.90;;;;;;4424363;28;655688;-77
2022/02/03 08:31:02;;;;;;;18.13;7.07;;;2.10;99.90;;;;;;4400830;28;654881;-77
2022/02/03 08:33:52;;;;;;;18.53;7.20;;;2.00;99.90;;;;;;4417385;28;655338;-76
2022/02/03 08:36:40;;;;;;;22.83;8.03;;;1.90;99.90;;;;;;4416435;28;655431;-77
2022/02/03 08:39:32;;;;;;;19.40;7.83;;;1.80;99.90;;;;;;4423634;28;654654;-77
2022/02/03 08:42:20;;;;;;;16.50;6.87;;;1.90;99.90;;;;;;4423631;28;655403;-77
2022/02/03 08:45:08;;;;;;;17.30;6.57;;;1.80;99.90;;;;;;4421980;28;654789;-76
2022/02/03 08:47:57;;;;;;;18.07;6.80;;;1.70;99.90;;;;;;4441313;28;654095;-76
2022/02/03 08:50:45;;;;;;;18.53;7.47;;;1.70;99.90;;;;;;4425246;28;656112;-76
2022/02/03 08:53:36;;;;;;;18.77;7.87;;;1.50;99.90;;;;;;4418235;28;654402;-75
2022/02/03 08:56:32;;;;;;;23.73;7.90;;;1.50;99.90;;;;;;4420906;28;654372;-75
2022/02/03 09:36:51;;;;;;;23.43;7.57;;;2.50;99.90;;;;;;4430383;28;653180;-76
2022/02/03 09:52:33;;;;;;;21.90;8.00;;;2.30;99.90;;;;;;4415175;28;653595;-76
2022/02/03 09:55:39;;;;;;;19.00;7.93;;;2.20;99.90;;;;;;4422973;28;652410;-75
2022/02/03 09:58:37;;;;;;;20.03;9.53;;;2.20;99.90;;;;;;4410563;28;652393;-76
2022/02/03 10:01:34;;;;;;;26.10;9.80;;;2.40;99.90;;;;;;4429687;28;653017;-76
2022/02/03 10:04:43;;;;;;;23.73;9.50;;;2.60;99.90;;;;;;4429463;28;652975;-75
2022/02/03 10:07:34;;;;;;;22.73;9.80;;;2.70;99.90;;;;;;4427481;28;652185;-75
2022/02/03 10:10:21;;;;;;;25.63;11.13;;;2.50;99.90;;;;;;4423275;28;652182;-76
2022/02/03 10:13:16;;;;;;;25.30;10.37;;;2.40;99.90;;;;;;4445718;28;655111;-75
2022/02/03 10:16:07;;;;;;;26.23;10.37;;;2.60;99.90;;;;;;4404774;28;654588;-76
2022/02/03 10:19:04;;;;;;;22.60;9.13;;;2.60;99.90;;;;;;4426111;28;655017;-75
2022/02/03 10:21:53;;;;;;;22.37;9.07;;;2.50;99.90;;;;;;4411723;28;652338;-76
2022/02/03 10:24:43;;;;;;;26.07;11.27;;;2.40;99.90;;;;;;4442372;28;652356;-76
2022/02/03 10:27:37;;;;;;;21.83;8.40;;;2.60;99.90;;;;;;4418564;28;653983;-76
2022/02/03 10:30:27;;;;;;;23.33;8.90;;;2.60;99.90;;;;;;4419906;28;653278;-75
2022/02/03 10:33:14;;;;;;;21.67;9.37;;;2.60;99.90;;;;;;4416852;28;654591;-75
2022/02/03 10:36:08;;;;;;;24.25;9.35;;;2.70;99.90;;;;;;4424996;28;652104;-76
2022/02/03 10:39:17;;;;;;;24.07;9.60;;;2.90;99.90;;;;;;4431336;28;652552;-76
2022/02/03 10:42:15;;;;;;;21.02;8.68;;;2.90;99.90;;;;;;4418073;28;653106;-76
2022/02/03 10:51:37;;;;;;;22.93;9.50;;;3.00;99.90;;;;;;4441976;28;654305;-76
2022/02/03 10:54:45;;;;;;;27.97;9.03;;;3.20;99.90;;;;;;4420969;28;652698;-75
2022/02/03 11:00:59;;;;;;;24.93;8.83;;;3.00;99.90;;;;;;4966685;27;131561;-75
2022/02/03 11:04:05;;;;;;;23.27;9.33;;;2.90;99.90;;;;;;4410428;27;650640;-76
2022/02/03 11:07:00;;;;;;;21.97;9.17;;;2.90;99.90;;;;;;4437568;27;649936;-75
2022/02/03 11:09:56;;;;;;;24.03;9.30;;;3.00;99.90;;;;;;4439962;28;650327;-75
2022/02/03 11:12:44;;;;;;;22.67;9.37;;;3.50;99.90;;;;;;4452180;28;650317;-75
2022/02/03 11:15:34;;;;;;;25.83;9.30;;;4.00;99.90;;;;;;4455399;28;651146;-75
2022/02/03 11:18:24;;;;;;;23.83;9.98;;;4.10;99.90;;;;;;4451768;28;651637;-75
2022/02/03 11:21:12;;;;;;;26.97;9.70;;;4.00;99.60;;;;;;4466295;28;651454;-75
2022/02/03 11:24:04;;;;;;;23.83;10.20;;;4.00;99.90;;;;;;4462650;28;651242;-76
2022/02/03 11:27:09;;;;;;;24.13;10.07;;;3.80;99.90;;;;;;4455803;28;652348;-75
2022/02/03 11:34:10;;;;;;;31.80;12.80;;;3.80;99.90;;;;;;4440353;28;653855;-76
2022/02/03 11:37:18;;;;;;;27.87;11.93;;;3.70;99.90;;;;;;4446610;28;654209;-76
2022/02/03 11:47:00;;;;;;;40.60;16.43;;;3.70;99.90;;;;;;4387032;28;654661;-76
2022/02/03 12:18:54;;;;;;;25.67;10.30;;;3.60;99.10;;;;;;4396475;28;652402;-76
2022/02/03 12:21:49;;;;;;;27.02;8.52;;;3.90;99.90;;;;;;4385305;28;653337;-76
2022/02/03 12:24:46;;;;;;;21.77;9.13;;;4.70;99.90;;;;;;4388524;28;652322;-77
2022/02/03 12:27:46;;;;;;;24.13;8.37;;;5.20;95.20;;;;;;4391246;28;653364;-76
2022/02/03 12:30:41;;;;;;;25.60;8.63;;;5.60;83.80;;;;;;4401098;28;652627;-77
2022/02/03 12:39:55;;;;;;;19.80;8.73;;;6.00;77.50;;;;;;4438519;28;652565;-78
2022/02/03 12:42:52;;;;;;;21.80;9.07;;;5.40;83.00;;;;;;4435130;28;652922;-76
2022/02/03 12:45:40;;;;;;;20.67;8.67;;;4.90;86.30;;;;;;4443918;28;652663;-76
2022/02/03 12:48:29;;;;;;;26.63;9.60;;;4.50;90.60;;;;;;4444809;27;652253;-77
2022/02/03 12:51:17;;;;;;;25.07;9.13;;;4.40;91.00;;;;;;4470377;27;652719;-77
2022/02/03 12:54:11;;;;;;;23.80;9.10;;;4.40;93.10;;;;;;4467806;27;653343;-77
2022/02/03 12:57:02;;;;;;;25.17;8.97;;;4.90;93.20;;;;;;4417345;27;653301;-77
2022/02/03 13:00:13;;;;;;;27.53;9.23;;;4.90;90.30;;;;;;4447372;27;655176;-78
2022/02/03 13:03:02;;;;;;;23.17;9.23;;;4.60;91.00;;;;;;4457377;27;652515;-78
2022/02/03 13:05:54;;;;;;;29.47;9.03;;;4.40;90.90;;;;;;4457815;27;653928;-78
2022/02/03 13:08:45;;;;;;;20.23;6.77;;;4.30;92.90;;;;;;4455212;27;653025;-78
2022/02/03 13:11:38;;;;;;;16.37;6.10;;;4.40;91.60;;;;;;4452086;27;652651;-79
2022/02/03 13:14:32;;;;;;;21.43;6.83;;;4.30;91.50;;;;;;4453661;27;652126;-78
2022/02/03 13:17:24;;;;;;;25.60;9.23;;;4.20;91.70;;;;;;4414692;28;652810;-79
2022/02/03 13:20:17;;;;;;;22.57;8.53;;;4.50;93.20;;;;;;4437785;27;652882;-77
2022/02/03 13:23:08;;;;;;;27.03;9.10;;;5.50;90.70;;;;;;4445750;28;653346;-79
2022/02/03 13:26:06;;;;;;;27.67;8.73;;;6.50;77.70;;;;;;4437745;28;652534;-79
2022/02/03 13:29:00;;;;;;;15.93;6.63;;;6.40;76.30;;;;;;4414012;28;652462;-79
2022/02/03 13:31:54;;;;;;;22.40;7.13;;;6.00;76.80;;;;;;4437488;28;652602;-78
2022/02/03 13:34:54;;;;;;;27.10;7.97;;;6.00;77.90;;;;;;4413286;28;652178;-78
2022/02/03 13:37:50;;;;;;;21.57;8.03;;;6.90;75.80;;;;;;4421032;28;653174;-79
2022/02/03 13:40:38;;;;;;;18.80;7.37;;;8.40;71.20;;;;;;4432449;28;652584;-78
2022/02/03 13:43:26;;;;;;;19.83;7.60;;;9.40;64.80;;;;;;4453203;28;653014;-79
2022/02/03 13:46:25;;;;;;;21.83;7.50;;;10.60;56.20;;;;;;4427727;28;653817;-79
2022/02/03 13:49:16;;;;;;;22.13;7.83;;;11.30;53.60;;;;;;4399985;28;655530;-80
2022/02/03 13:52:10;;;;;;;19.37;8.23;;;11.80;51.20;;;;;;4431005;28;655896;-80
2022/02/03 14:10:30;;;;;;;20.53;7.87;;;12.10;50.40;;;;;;4436448;28;654709;-79
2022/02/03 14:14:23;;;;;;;16.73;6.00;;;8.40;59.00;;;;;;4412102;28;654423;-79
2022/02/03 14:20:37;;;;;;;20.37;6.43;;;10.20;52.00;;;;;;4418013;28;653803;-77
2022/02/03 14:26:50;;;;;;;16.10;6.27;;;11.40;50.20;;;;;;4416015;28;654399;-79
2022/02/03 14:27:04;;;;;;;18.03;6.43;;;12.20;47.60;;;;;;4446743;28;654925;-79
2022/02/03 14:29:54;;;;;;;17.40;6.47;;;12.40;46.40;;;;;;4434426;28;655095;-79
2022/02/03 14:32:43;;;;;;;17.97;6.53;;;12.30;45.50;;;;;;4447351;28;654551;-78
2022/02/03 14:35:32;;;;;;;16.97;6.20;;;11.90;44.30;;;;;;4467096;28;654713;-78
2022/02/03 14:38:25;;;;;;;15.53;6.17;;;11.60;44.40;;;;;;4438871;28;655765;-78
2022/02/03 14:41:20;;;;;;;17.83;6.68;;;11.70;44.90;;;;;;4421963;27;655480;-78
2022/02/03 14:44:08;;;;;;;19.50;6.53;;;11.20;45.70;;;;;;4411227;28;654805;-79
2022/02/03 14:46:55;;;;;;;15.00;5.80;;;11.80;45.10;;;;;;4464317;28;654458;-79
2022/02/03 14:49:45;;;;;;;17.87;5.90;;;12.10;45.20;;;;;;4441469;28;654234;-79
2022/02/03 14:52:45;;;;;;;17.90;6.83;;;12.50;43.50;;;;;;4443142;28;654859;-80
2022/02/03 14:58:38;;;;;;;20.13;7.37;;;11.90;42.30;;;;;;4426901;28;654074;-80
2022/02/03 15:01:27;;;;;;;19.37;7.17;;;11.60;44.20;;;;;;4458655;28;655045;-79
2022/02/03 15:04:24;;;;;;;12.73;5.20;;;10.80;43.90;;;;;;4430793;28;656263;-79
2022/02/03 15:07:12;;;;;;;18.10;5.83;;;9.30;47.00;;;;;;4416354;28;654865;-76
2022/02/03 15:10:27;;;;;;;18.60;6.20;;;7.60;51.10;;;;;;4442626;28;653822;-79
2022/02/03 15:13:30;;;;;;;17.37;7.17;;;6.30;55.30;;;;;;4448309;28;653346;-80
2022/02/03 15:16:17;;;;;;;21.93;6.93;;;5.40;58.40;;;;;;4430601;28;653396;-78
2022/02/03 15:19:06;;;;;;;20.93;6.10;;;4.70;60.10;;;;;;4473976;28;654431;-79
2022/02/03 15:21:53;;;;;;;20.37;6.67;;;4.30;63.70;;;;;;4458372;28;653423;-79
2022/02/03 15:24:41;;;;;;;20.80;6.43;;;4.00;65.90;;;;;;4471660;28;653131;-79
2022/02/03 15:27:30;;;;;;;18.00;5.90;;;3.80;68.30;;;;;;4453553;28;654096;-79
2022/02/03 15:30:18;;;;;;;20.20;6.80;;;3.50;71.20;;;;;;4455743;28;653752;-78
2022/02/03 15:33:05;;;;;;;17.27;6.37;;;3.40;73.60;;;;;;4478604;28;653763;-79
2022/02/03 15:35:57;;;;;;;22.33;6.93;;;3.20;75.30;;;;;;4456454;28;653365;-78
2022/02/03 15:38:48;;;;;;;24.43;6.93;;;3.00;77.50;;;;;;4448259;28;654539;-78
2022/02/03 15:41:36;;;;;;;25.47;8.33;;;2.80;78.90;;;;;;4446887;28;654116;-79
2022/02/03 15:44:25;;;;;;;31.60;12.43;;;2.50;82.40;;;;;;4439374;28;653952;-79
2022/02/03 15:47:21;;;;;;;33.83;14.57;;;2.40;85.70;;;;;;4456446;27;654432;-79
2022/02/03 15:56:32;;;;;;;25.27;10.13;;;1.90;93.50;;;;;;4431739;27;655566;-79
2022/02/03 16:02:48;;;;;;;19.60;9.40;;;1.50;98.00;;;;;;4430315;27;655530;-76
2022/02/03 16:15:48;;;;;;;24.20;8.83;;;0.80;99.90;;;;;;4443665;27;655793;-79
2022/02/03 16:18:13;;;;;;;26.03;10.50;;;0.70;99.90;;;;;;4460630;27;654610;-77
2022/02/03 16:21:10;;;;;;;45.17;15.50;;;0.60;99.90;;;;;;4471501;27;655168;-79
2022/02/03 16:24:12;;;;;;;71.77;23.43;;;0.50;99.90;;;;;;4451640;27;655787;-79
2022/02/03 16:54:58;;;;;;;43.67;14.23;;;-0.20;99.90;;;;;;4372893;28;656786;-79
2022/02/03 16:57:48;;;;;;;48.43;17.97;;;-0.30;99.90;;;;;;4381537;28;656566;-80
2022/02/03 17:00:35;;;;;;;73.27;27.47;;;-0.30;99.90;;;;;;4376819;28;656773;-79
2022/02/03 17:03:23;;;;;;;110.90;35.27;;;-0.40;99.90;;;;;;4373796;28;656964;-80
2022/02/03 17:06:12;;;;;;;152.57;44.70;;;-0.40;99.90;;;;;;4408432;28;657480;-80
2022/02/03 17:09:01;;;;;;;89.93;30.53;;;-0.40;99.90;;;;;;4375357;28;658151;-79
2022/02/03 17:11:49;;;;;;;118.03;38.97;;;-0.50;99.90;;;;;;4380332;28;657524;-78
2022/02/03 17:14:37;;;;;;;83.63;29.53;;;-0.50;99.90;;;;;;4377024;28;659372;-78
2022/02/03 17:17:25;;;;;;;159.87;45.10;;;-0.50;99.90;;;;;;4401421;28;657136;-79
2022/02/03 17:20:13;;;;;;;81.67;29.03;;;-0.60;99.90;;;;;;4371333;28;657871;-80
2022/02/03 17:23:04;;;;;;;100.83;32.70;;;-0.60;99.90;;;;;;4401227;28;656636;-77
2022/02/03 17:26:03;;;;;;;143.30;45.30;;;-0.60;99.90;;;;;;4354136;28;657620;-74
2022/02/03 17:28:56;;;;;;;292.60;63.03;;;-0.70;99.90;;;;;;4397070;27;657642;-77
2022/02/03 17:31:56;;;;;;;184.80;48.90;;;-0.70;99.90;;;;;;4417246;27;658998;-78
2022/02/03 18:08:56;;;;;;;168.07;60.83;;;-1.00;99.90;;;;;;4430417;28;658655;-70
2022/02/03 18:30:45;;;;;;;168.37;56.47;;;-1.10;99.90;;;;;;4377890;27;659024;-71
2022/02/03 18:37:07;;;;;;;144.93;49.10;;;-1.10;99.90;;;;;;4382145;28;658144;-71
2022/02/03 18:52:50;;;;;;;122.80;45.40;;;-1.10;99.90;;;;;;4330545;28;658302;-71
2022/02/03 18:55:51;;;;;;;135.90;46.87;;;-1.00;99.90;;;;;;4338940;28;657642;-70
2022/02/03 18:58:46;;;;;;;169.37;59.13;;;-1.00;99.90;;;;;;4314932;28;659408;-71
2022/02/03 19:01:48;;;;;;;190.37;68.40;;;-1.00;99.90;;;;;;4314158;28;658302;-72
2022/02/03 19:27:05;;;;;;;145.20;52.63;;;-0.70;99.90;;;;;;4384864;28;654702;-71
2022/02/03 20:07:08;;;;;;;95.43;35.53;;;-0.20;99.90;;;;;;4456901;27;655694;-71
2022/02/03 20:10:11;;;;;;;97.30;36.67;;;-0.20;99.90;;;;;;4448595;27;655160;-71
2022/02/03 20:12:59;;;;;;;89.73;32.37;;;-0.20;99.90;;;;;;4458830;27;654969;-70
2022/02/03 20:15:48;;;;;;;92.93;35.07;;;-0.10;99.90;;;;;;4519145;27;654344;-70
2022/02/03 20:18:37;;;;;;;96.63;34.27;;;-0.10;99.90;;;;;;4479785;27;655714;-71
2022/02/03 20:21:29;;;;;;;102.13;34.93;;;-0.10;99.90;;;;;;4461291;27;655310;-71
2022/02/03 20:24:17;;;;;;;110.63;37.60;;;-0.10;99.90;;;;;;4439555;27;655398;-70
2022/02/03 20:27:05;;;;;;;95.40;33.13;;;-0.10;99.90;;;;;;4470681;27;655518;-71
2022/02/03 20:29:54;;;;;;;109.40;36.20;;;-0.10;99.90;;;;;;4455219;27;654543;-70
2022/02/03 20:32:42;;;;;;;103.70;33.03;;;-0.10;99.90;;;;;;4452165;27;655790;-70
2022/02/03 20:35:31;;;;;;;99.10;35.20;;;-0.10;99.90;;;;;;4474501;27;656219;-71
2022/02/03 20:38:20;;;;;;;98.07;34.05;;;-0.10;99.90;;;;;;4451935;27;655189;-71
2022/02/03 20:41:08;;;;;;;88.20;31.10;;;-0.10;99.90;;;;;;4449577;28;654328;-71
2022/02/03 20:43:55;;;;;;;94.97;34.30;;;-0.10;99.90;;;;;;4478391;27;655318;-71
2022/02/03 20:46:43;;;;;;;88.50;33.17;;;-0.10;99.90;;;;;;4456212;27;654238;-71
2022/02/03 20:49:33;;;;;;;97.80;33.80;;;-0.10;99.90;;;;;;4475508;27;654109;-71
2022/02/03 20:52:22;;;;;;;98.80;32.43;;;-0.10;99.90;;;;;;4452708;27;655170;-70
2022/02/03 20:55:10;;;;;;;87.30;31.30;;;-0.10;99.90;;;;;;4453245;27;654590;-71
2022/02/03 20:57:58;;;;;;;90.80;31.83;;;0.00;99.90;;;;;;4454594;27;654644;-70
2022/02/03 21:00:50;;;;;;;94.77;29.73;;;-0.10;99.90;;;;;;4472573;27;653293;-71
2022/02/03 21:03:41;;;;;;;86.10;30.50;;;-0.10;99.90;;;;;;4455913;27;654769;-71
2022/02/03 21:06:28;;;;;;;92.03;28.90;;;0.00;99.90;;;;;;4453262;27;654639;-70
2022/02/03 21:09:18;;;;;;;105.03;33.33;;;-0.10;99.90;;;;;;4479123;27;653682;-71
2022/02/03 21:12:06;;;;;;;88.70;29.87;;;-0.10;99.90;;;;;;4455681;27;656274;-70
2022/02/03 21:14:54;;;;;;;115.87;37.87;;;0.00;99.90;;;;;;4461131;27;655034;-70
2022/02/03 21:17:42;;;;;;;90.80;29.57;;;0.00;99.90;;;;;;4467058;27;654425;-70
2022/02/03 21:20:30;;;;;;;80.07;27.47;;;0.00;99.90;;;;;;4486893;27;653812;-70
2022/02/03 21:23:18;;;;;;;82.27;27.83;;;0.00;99.90;;;;;;4466757;27;653690;-69
2022/02/03 21:26:14;;;;;;;94.77;30.93;;;0.10;99.90;;;;;;4485112;27;654236;-70
2022/02/03 21:29:02;;;;;;;71.60;24.43;;;0.00;99.90;;;;;;4443316;27;654150;-69
2022/02/03 21:31:49;;;;;;;79.60;26.73;;;0.10;99.90;;;;;;4490204;27;653803;-69
2022/02/03 21:34:37;;;;;;;97.00;32.87;;;0.10;99.90;;;;;;4469519;27;653754;-69
2022/02/03 21:37:24;;;;;;;86.57;29.47;;;0.00;99.90;;;;;;4473959;27;654048;-70
2022/02/03 21:40:13;;;;;;;73.60;26.20;;;0.10;99.90;;;;;;4462919;27;654322;-69
2022/02/03 21:43:03;;;;;;;75.47;26.77;;;0.10;99.90;;;;;;4475605;27;653851;-70
2022/02/03 21:45:52;;;;;;;80.82;27.50;;;0.20;99.90;;;;;;4461292;27;653342;-69
2022/02/03 21:48:43;;;;;;;71.83;26.10;;;0.20;99.90;;;;;;4496475;27;653795;-72
2022/02/03 21:51:35;;;;;;;78.53;31.23;;;0.20;99.90;;;;;;4463052;27;654112;-71
2022/02/03 21:54:23;;;;;;;67.70;25.43;;;0.20;99.90;;;;;;4429484;27;654613;-70
2022/02/03 21:57:11;;;;;;;71.07;26.17;;;0.20;99.90;;;;;;4487758;27;653401;-70
2022/02/03 22:00:00;;;;;;;71.07;24.73;;;0.30;99.90;;;;;;4451406;27;655056;-72
2022/02/03 22:02:48;;;;;;;66.57;24.47;;;0.20;99.90;;;;;;4463755;27;656645;-72
2022/02/03 22:05:36;;;;;;;61.60;22.53;;;0.30;99.90;;;;;;4486242;27;654249;-72
2022/02/03 22:08:24;;;;;;;64.60;22.37;;;0.30;99.90;;;;;;4456810;27;655562;-72
2022/02/03 22:11:12;;;;;;;63.83;22.87;;;0.30;99.90;;;;;;4460980;27;654904;-72
2022/02/03 22:14:00;;;;;;;57.87;19.87;;;0.30;99.90;;;;;;4467000;28;655184;-72
2022/02/03 22:16:50;;;;;;;65.78;22.88;;;0.30;99.90;;;;;;4445832;28;654771;-72
2022/02/03 22:19:43;;;;;;;59.17;22.77;;;0.30;99.90;;;;;;4446248;28;654664;-72
2022/02/03 22:22:45;;;;;;;66.53;22.30;;;0.40;99.90;;;;;;4446952;27;654465;-72
2022/02/03 22:25:57;;;;;;;55.30;19.33;;;0.40;99.90;;;;;;4426259;27;655356;-72
2022/02/03 22:44:27;;;;;;;45.67;15.50;;;0.60;99.90;;;;;;4417304;27;654922;-72
2022/02/03 22:47:23;;;;;;;45.50;15.90;;;0.60;99.90;;;;;;4440272;28;655053;-72
2022/02/03 22:50:10;;;;;;;42.80;14.40;;;0.60;99.90;;;;;;4442728;28;654365;-72
2022/02/03 22:52:58;;;;;;;40.87;14.33;;;0.60;99.90;;;;;;4438776;28;655476;-72
2022/02/03 22:55:46;;;;;;;32.80;11.63;;;0.70;99.90;;;;;;4464960;28;655128;-72
2022/02/03 23:01:38;;;;;;;41.53;15.13;;;0.80;99.90;;;;;;4406787;28;654815;-72
2022/02/03 23:04:28;;;;;;;42.63;14.80;;;0.90;99.90;;;;;;4465093;27;654076;-72
2022/02/03 23:07:19;;;;;;;45.33;15.27;;;0.90;99.90;;;;;;4444889;28;654405;-72
2022/02/03 23:10:18;;;;;;;44.13;14.57;;;1.00;99.90;;;;;;4424422;28;655249;-72
2022/02/03 23:13:22;;;;;;;46.53;15.63;;;1.00;99.90;;;;;;4455862;27;654515;-72
2022/02/03 23:16:20;;;;;;;45.33;15.07;;;1.10;99.90;;;;;;4458079;27;655780;-72
2022/02/03 23:19:29;;;;;;;41.10;15.60;;;1.20;99.90;;;;;;4447112;27;654861;-72
2022/02/03 23:22:18;;;;;;;51.27;16.77;;;1.30;99.90;;;;;;4441265;27;654323;-72